Ride Results

Faraway Easter Carnival (25-03-2016)
Ride distance: 80.0 km

Outcomes - Faraway Easter Carnival (25-03-2016)
Division No. of Entries Retired / DNE Completed Withdrawn Ineligible V/O Percentage Completed
HW 4 - 3 - - 1 75.00%
MW 15 - 11 - - 4 73.33%
LW 13 - 13 - - - 100.00%
JN 7 - 6 1 - - 85.71%
Totals 39 - 33 1 - 5 84.62%
Results - Faraway Easter Carnival (25-03-2016)
No. Rider Horse Place Time Leg Speeds Total
Km/Hr
H/R bpm
Heavyweight
272 Matthew Gadsby Maximus Ra 1 (BC) 5:45:27 12.7, 15.2 13.89 42, 46, 58 (Avg:52)
256 Tasha Jeremy Hirstglen Mack 2 8:37:38 10.3, 8.3 9.27 30, 44, 57 (Avg:50)
278 Shimpei Miyamoto Aloha Blue Opal 3 8:46:40 9.1, 9.0 9.11 34, 41, 47 (Avg:44)
273 Paul Lengronne Royal Windsor Jacob Metabolics severe L2 0:00:00 12.7, 13.4 - 40, 49, 66 (Avg:57)
Middleweight
265 Akhmed Pshunov Sangah The Messiah 1 (BC) 5:45:07 12.2, 16.0 13.91 40, 51, 50 (Avg:50)
277 Simone Krahnen Kalkadoon Zorro 2 6:12:44 12.5, 13.2 12.88 52, 47, 48 (Avg:47)
259 Cameron Campbell Koah Carlos 3 6:54:10 12.0, 11.1 11.59 45, 48, 56 (Avg:52)
274 Fiona Fenech Bellarine Passiona 4 7:09:29 12.3, 10.1 11.18 32, 43, 46 (Avg:44)
264 Jess Langridge Matta Mia Sahh 5 7:25:00 11.3, 10.2 10.79 39, 50, 54 (Avg:52)
286 Kirsty Nicholson Hill Stone Azmah 6 7:31:24 10.4, 10.8 10.63 40, 44, 44 (Avg:44)
255 Jess Dakin Hirstglen Cruisader 7 7:55:51 10.3, 9.8 10.09 29, 38, 49 (Avg:43)
269 Angela Beverley Buck 8 8:03:39 10.0, 9.8 9.92 37, 41, 45 (Avg:43)
251 Alli Gerrard Mafraq 9 8:03:49 10.0, 9.7 9.92 34, 38, 46 (Avg:42)
288 Lynelle Greenwood Gheerulla Ambition 10 8:46:40 9.5, 8.6 9.11 27, 48, 48 (Avg:48)
285 Brook Sample Brookleigh Beyonce 10 8:46:40 9.1, 9.0 9.11 39, 43, 51 (Avg:47)
253 Leigh Bannister Scarlett Metabolics severe L2 0:00:00 11.0, 7.9 - 36, 51, 71 (Avg:61)
287 Olga Bartlett Mt Eerwah Anastazia Lame L1 0:00:00 9.5 - 33, 43 (Avg:43)
249 Natashja Burton Cool Water Moonshadow Metabolics severe L1 0:00:00 12.6 - 38, 73 (Avg:73)
260 Brenda Davy Bashan Kayla Metabolics severe L1 0:00:00 9.5 - 37, 62 (Avg:62)
Lightweight
252 Renae Chapman Larabi Rummanni 1 5:58:53 13.2, 13.5 13.37 36, 38, 47 (Avg:42)
270 Janelle Taylor Calico Jarkamarn 1 (BC) 5:58:53 13.2, 13.5 13.37 31, 39, 49 (Avg:44)
248 Karen Winkel Ranek Boz 1 5:58:53 13.2, 13.5 13.37 46, 47, 58 (Avg:52)
276 Erin Krahnen Glengannon Azazael 4 6:12:44 12.5, 13.2 12.88 37, 46, 46 (Avg:46)
267 Kaylea Maher Cameo Mazquerade 5 6:15:12 12.2, 13.3 12.79 40, 48, 58 (Avg:53)
268 Bobbi Lochtenberg Matta Mia Arad 6 7:25:49 8.6, 14.2 10.77 38, 46, 47 (Avg:46)
279 Shelley-ann Kimber Gheerulla Sheriff 7 7:26:00 11.2, 10.3 10.76 37, 44, 47 (Avg:45)
283 Leigh Ann Sample Brookleigh Bailey 8 7:26:50 11.2, 10.2 10.74 38, 42, 50 (Avg:46)
258 Mindy Davies El'Maas Ginger Kisses 9 7:55:51 10.3, 9.8 10.09 32, 40, 47 (Avg:43)
284 Luisa Haguiara Porto Alegre Gheerulla Jagger 10 8:46:40 9.1, 9.0 9.11 40, 43, 49 (Avg:46)
282 Floor Braunius Gheerulla Larissa 11 8:46:46 9.1, 9.0 9.11 34, 43, 44 (Avg:43)
257 Kate Appleby Hirstglen Bellarina 12 8:55:00 8.6, 9.3 8.97 31, 49, 48 (Avg:48)
254 Amanda Doyle Hirstglen Herbie 12 8:55:00 8.6, 9.3 8.97 32, 43, 45 (Avg:44)
Junior
275 Emma Dimech Morocco 1 7:09:29 12.3, 10.1 11.18 39, 48, 44 (Avg:46)
250 Jayd Sansucie Lavender Park Maatisse 2 7:22:00 11.2, 10.4 10.86 40, 49, 54 (Avg:51)
280 Matty Sample Brookleigh Milo 3 (BC) 7:26:50 11.2, 10.2 10.74 38, 45, 57 (Avg:51)
263 Ronan McKay Storm 4 8:23:53 9.5, 9.4 9.53 33, 41, 47 (Avg:44)
261 Maeve Paten Bashan Silver Nadeer 4 8:23:53 9.5, 9.4 9.53 33, 42, 47 (Avg:44)
262 Mel Simpson Bashan Memphis 4 8:23:53 9.5, 9.4 9.53 38, 43, 49 (Avg:46)
281 Zac Sample Kidaman Ashquar Widthdrawn P/R 0:00:00 - - 38